createdAt,value
2022-08-17T00:00:39.706Z,19.00
2022-08-17T00:03:10.735Z,18.90
2022-08-17T00:05:15.672Z,18.90
2022-08-17T00:07:17.449Z,18.90
2022-08-17T00:09:19.536Z,18.80
2022-08-17T00:11:32.131Z,18.80
2022-08-17T00:13:41.266Z,18.80
2022-08-17T00:15:44.810Z,18.70
2022-08-17T00:17:49.322Z,18.70
2022-08-17T00:19:51.104Z,18.70
2022-08-17T00:22:32.784Z,18.70
2022-08-17T00:24:19.974Z,18.70
2022-08-17T00:26:34.549Z,18.60
2022-08-17T00:28:45.364Z,18.60
2022-08-17T00:30:53.229Z,18.60
2022-08-17T00:33:12.526Z,18.50
2022-08-17T00:35:23.579Z,18.50
2022-08-17T00:37:25.372Z,18.50
2022-08-17T00:39:27.182Z,18.50
2022-08-17T00:41:29.453Z,18.50
2022-08-17T00:43:44.176Z,18.40
2022-08-17T00:45:46.424Z,18.40
2022-08-17T00:47:49.450Z,18.40
2022-08-17T00:49:51.244Z,18.40
2022-08-17T00:51:59.092Z,18.40
2022-08-17T00:54:18.551Z,18.40
2022-08-17T00:56:26.691Z,18.40
2022-08-17T00:58:35.927Z,18.40
2022-08-17T01:00:45.867Z,18.40
2022-08-17T01:02:48.910Z,18.40
2022-08-17T01:04:52.438Z,18.30
2022-08-17T01:06:56.745Z,18.40
2022-08-17T01:09:00.819Z,18.40
2022-08-17T01:11:03.137Z,18.30
2022-08-17T01:13:05.748Z,18.30
2022-08-17T01:15:08.390Z,18.30
2022-08-17T01:17:10.469Z,18.30
2022-08-17T01:19:37.668Z,18.30
2022-08-17T01:21:51.486Z,18.30
2022-08-17T01:23:53.379Z,18.30
2022-08-17T01:26:01.805Z,18.30
2022-08-17T01:28:05.512Z,18.20
2022-08-17T01:30:56.741Z,18.20
2022-08-17T01:32:32.685Z,18.20
2022-08-17T01:34:42.315Z,18.20
2022-08-17T01:36:47.973Z,18.20
2022-08-17T01:38:49.955Z,18.10
2022-08-17T01:40:57.479Z,18.10
2022-08-17T01:43:07.314Z,18.10
2022-08-17T01:45:20.294Z,18.10
2022-08-17T01:47:22.860Z,18.00
2022-08-17T01:49:25.825Z,18.00
2022-08-17T01:51:32.516Z,18.00
2022-08-17T01:53:42.655Z,18.00
2022-08-17T01:55:51.457Z,18.00
2022-08-17T01:57:53.603Z,18.00
2022-08-17T01:59:55.475Z,18.00
2022-08-17T02:01:57.373Z,18.00
2022-08-17T02:04:01.336Z,18.00
2022-08-17T02:06:06.091Z,18.00
2022-08-17T02:08:39.258Z,17.90
2022-08-17T02:10:51.777Z,17.90
2022-08-17T02:12:54.781Z,17.90
2022-08-17T02:14:56.724Z,17.90
2022-08-17T02:16:58.760Z,17.90
2022-08-17T02:19:01.577Z,17.90
2022-08-17T02:21:03.792Z,17.90
2022-08-17T02:23:08.880Z,17.80
2022-08-17T02:25:13.403Z,17.80
2022-08-17T02:27:15.211Z,17.70
2022-08-17T02:29:17.015Z,17.80
2022-08-17T02:31:18.961Z,17.80
2022-08-17T02:33:21.263Z,17.70
2022-08-17T02:35:23.497Z,17.70
2022-08-17T02:37:27.227Z,17.70
2022-08-17T02:39:29.026Z,17.70
2022-08-17T02:41:30.974Z,17.60
2022-08-17T02:43:33.292Z,17.60
2022-08-17T02:45:35.653Z,17.60
2022-08-17T02:47:38.165Z,17.60
2022-08-17T02:49:40.026Z,17.60
2022-08-17T02:51:41.745Z,17.60
2022-08-17T02:53:43.582Z,17.60
2022-08-17T02:55:45.434Z,17.60
2022-08-17T02:57:47.684Z,17.50
2022-08-17T02:59:49.527Z,17.60
2022-08-17T03:01:51.327Z,17.50
2022-08-17T03:03:53.266Z,17.50
2022-08-17T03:05:55.077Z,17.50
2022-08-17T03:07:57.362Z,17.50
2022-08-17T03:09:59.339Z,17.40
2022-08-17T03:12:11.067Z,17.40
2022-08-17T03:14:12.903Z,17.40
2022-08-17T03:16:14.948Z,17.40
2022-08-17T03:18:25.409Z,17.40
2022-08-17T03:20:31.079Z,17.30
2022-08-17T03:22:40.574Z,17.30
2022-08-17T03:24:42.359Z,17.30
2022-08-17T03:26:44.229Z,17.30
2022-08-17T03:28:46.021Z,17.20
2022-08-17T03:30:47.912Z,17.20
2022-08-17T03:32:52.058Z,17.20
2022-08-17T03:34:59.204Z,17.20
2022-08-17T03:37:00.936Z,17.20
2022-08-17T03:39:02.808Z,17.20
2022-08-17T03:41:06.486Z,17.20
2022-08-17T03:43:09.706Z,17.20
2022-08-17T03:45:15.589Z,17.10
2022-08-17T03:47:35.898Z,17.10
2022-08-17T03:49:56.543Z,17.10
2022-08-17T03:52:16.842Z,17.10
2022-08-17T03:54:37.460Z,17.00
2022-08-17T03:56:42.296Z,17.00
2022-08-17T03:58:44.638Z,17.00
2022-08-17T04:00:46.622Z,16.90
2022-08-17T04:02:48.453Z,17.00
2022-08-17T04:04:51.294Z,16.90
2022-08-17T04:06:53.248Z,17.00
2022-08-17T04:08:55.030Z,17.00
2022-08-17T04:10:58.149Z,17.00
2022-08-17T04:13:00.026Z,17.00
2022-08-17T04:15:01.864Z,17.00
2022-08-17T04:17:04.954Z,16.90
2022-08-17T04:19:07.067Z,16.90
2022-08-17T04:21:09.571Z,16.90
2022-08-17T04:23:14.471Z,16.90
2022-08-17T04:25:18.399Z,16.90
2022-08-17T04:27:20.206Z,16.90
2022-08-17T04:29:23.132Z,16.90
2022-08-17T04:31:26.248Z,16.90
2022-08-17T04:33:29.534Z,16.90
2022-08-17T04:35:42.150Z,16.90
2022-08-17T04:37:45.369Z,16.90
2022-08-17T04:40:07.163Z,16.90
2022-08-17T04:42:17.093Z,16.90
2022-08-17T04:44:37.196Z,16.90
2022-08-17T04:46:39.935Z,16.90
2022-08-17T04:48:47.804Z,16.90
2022-08-17T04:50:50.965Z,17.00
2022-08-17T04:52:52.770Z,17.00
2022-08-17T04:54:54.561Z,17.00
2022-08-17T04:56:56.360Z,17.00
2022-08-17T04:59:02.615Z,17.00
2022-08-17T05:01:05.905Z,17.00
2022-08-17T05:03:07.728Z,17.00
2022-08-17T05:05:09.597Z,17.10
2022-08-17T05:07:11.856Z,17.10
2022-08-17T05:09:14.204Z,17.10
2022-08-17T05:11:16.123Z,17.10
2022-08-17T05:13:21.557Z,17.10
2022-08-17T05:15:23.356Z,17.20
2022-08-17T05:17:25.120Z,17.20
2022-08-17T05:19:27.028Z,17.30
2022-08-17T05:21:29.685Z,17.30
2022-08-17T05:23:41.902Z,17.40
2022-08-17T05:25:47.913Z,17.40
2022-08-17T05:27:49.709Z,17.50
2022-08-17T05:29:52.224Z,17.60
2022-08-17T05:31:54.290Z,17.60
2022-08-17T05:33:56.131Z,17.70
2022-08-17T05:35:59.697Z,17.80
2022-08-17T05:38:01.743Z,17.80
2022-08-17T05:40:04.074Z,17.90
2022-08-17T05:42:06.224Z,17.90
2022-08-17T05:44:08.005Z,18.00
2022-08-17T05:46:26.420Z,18.10
2022-08-17T05:48:36.776Z,18.10
2022-08-17T05:50:58.669Z,18.20
2022-08-17T05:53:14.093Z,18.20
2022-08-17T05:55:36.217Z,18.30
2022-08-17T05:58:01.386Z,18.40
2022-08-17T06:00:19.244Z,18.50
2022-08-17T06:02:54.657Z,18.60
2022-08-17T06:05:11.120Z,18.60
2022-08-17T06:07:22.003Z,18.70
2022-08-17T06:09:38.858Z,18.80
2022-08-17T06:12:01.732Z,18.80
2022-08-17T06:14:23.201Z,19.00
2022-08-17T06:16:34.067Z,19.00
2022-08-17T06:18:50.225Z,19.10
2022-08-17T06:20:59.864Z,19.30
2022-08-17T06:23:12.262Z,19.40
2022-08-17T06:25:29.932Z,19.50
2022-08-17T06:27:38.560Z,19.60
2022-08-17T06:30:02.207Z,19.70
2022-08-17T06:32:08.492Z,19.80
2022-08-17T06:34:12.579Z,19.90
2022-08-17T06:36:30.161Z,19.90
2022-08-17T06:38:41.276Z,20.10
2022-08-17T06:41:07.583Z,20.20
2022-08-17T06:43:20.989Z,20.30
2022-08-17T06:45:37.779Z,20.40
2022-08-17T06:47:42.389Z,20.50
2022-08-17T06:50:16.546Z,20.60
2022-08-17T06:52:46.417Z,20.70
2022-08-17T06:55:18.056Z,20.80
2022-08-17T06:57:28.462Z,20.90
2022-08-17T06:59:55.924Z,21.00
2022-08-17T07:02:05.246Z,21.10
2022-08-17T07:04:17.229Z,21.20
2022-08-17T07:06:23.657Z,21.40
2022-08-17T07:08:44.594Z,21.50
2022-08-17T07:10:57.492Z,21.70
2022-08-17T07:13:13.979Z,21.80
2022-08-17T07:15:30.542Z,21.90
2022-08-17T07:17:47.015Z,22.00
2022-08-17T07:19:54.097Z,22.10
2022-08-17T07:22:09.363Z,22.20
2022-08-17T07:24:30.254Z,22.30
2022-08-17T07:26:32.511Z,22.40
2022-08-17T07:28:35.731Z,22.60
2022-08-17T07:30:50.135Z,22.70
2022-08-17T07:32:57.796Z,22.80
2022-08-17T07:35:37.704Z,22.90
2022-08-17T07:38:24.942Z,23.00
2022-08-17T07:40:43.982Z,23.10
2022-08-17T07:43:06.267Z,23.20
2022-08-17T07:45:28.435Z,23.40
2022-08-17T07:47:49.173Z,23.40
2022-08-17T07:49:51.159Z,23.50
2022-08-17T07:51:55.339Z,23.60
2022-08-17T07:54:23.990Z,23.70
2022-08-17T07:56:37.923Z,23.80
2022-08-17T07:58:39.736Z,24.00
2022-08-17T08:00:41.538Z,24.00
2022-08-17T08:02:47.594Z,24.20
2022-08-17T08:05:01.846Z,24.20
2022-08-17T08:07:08.484Z,24.30
2022-08-17T08:09:29.100Z,24.40
2022-08-17T08:11:34.906Z,24.50
2022-08-17T08:13:42.624Z,24.50
2022-08-17T08:15:54.251Z,24.40
2022-08-17T08:17:59.298Z,24.70
2022-08-17T08:20:34.907Z,24.80
2022-08-17T08:22:36.954Z,24.80
2022-08-17T08:24:57.317Z,24.90
2022-08-17T08:27:13.808Z,24.90
2022-08-17T08:29:30.327Z,25.00
2022-08-17T08:31:56.222Z,25.10
2022-08-17T08:35:00.911Z,25.20
2022-08-17T08:37:18.068Z,25.30
2022-08-17T08:39:45.238Z,25.30
2022-08-17T08:41:58.831Z,25.40
2022-08-17T08:44:23.915Z,25.40
2022-08-17T08:47:00.811Z,25.50
2022-08-17T08:49:33.799Z,25.60
2022-08-17T08:51:59.408Z,25.70
2022-08-17T08:54:31.440Z,25.70
2022-08-17T08:57:30.822Z,25.80
2022-08-17T09:00:15.158Z,25.80
2022-08-17T09:02:45.428Z,25.90
2022-08-17T09:05:17.043Z,25.90
2022-08-17T09:07:41.901Z,26.10
2022-08-17T09:09:59.494Z,26.20
2022-08-17T09:12:10.564Z,26.30
2022-08-17T09:14:45.048Z,26.30
2022-08-17T09:17:06.308Z,26.40
2022-08-17T09:19:19.418Z,26.50
2022-08-17T09:21:28.703Z,26.60
2022-08-17T09:23:35.467Z,26.70
2022-08-17T09:25:49.849Z,26.80
2022-08-17T09:28:00.701Z,26.90
2022-08-17T09:30:07.921Z,26.90
2022-08-17T09:32:29.905Z,27.00
2022-08-17T09:34:49.132Z,27.10
2022-08-17T09:37:03.194Z,27.10
2022-08-17T09:39:24.468Z,27.10
2022-08-17T09:41:49.054Z,27.30
2022-08-17T09:44:23.418Z,27.40
2022-08-17T09:46:41.460Z,27.50
2022-08-17T09:48:55.288Z,27.60
2022-08-17T09:51:21.419Z,27.70
2022-08-17T09:53:23.373Z,27.70
2022-08-17T09:55:44.067Z,27.70
2022-08-17T09:58:00.926Z,27.80
2022-08-17T10:00:18.762Z,27.80
2022-08-17T10:02:54.443Z,27.90
2022-08-17T10:05:25.406Z,28.10
2022-08-17T10:07:36.431Z,28.20
2022-08-17T10:10:06.458Z,28.30
2022-08-17T10:12:47.000Z,28.40
2022-08-17T10:15:09.566Z,28.40
2022-08-17T10:17:54.526Z,28.50
2022-08-17T10:20:28.191Z,28.40
2022-08-17T10:22:56.677Z,28.40
2022-08-17T10:25:23.886Z,28.50
2022-08-17T10:27:48.807Z,28.50
2022-08-17T10:30:04.304Z,28.70
2022-08-17T10:32:11.563Z,28.70
2022-08-17T10:34:41.194Z,28.80
2022-08-17T10:36:58.156Z,28.90
2022-08-17T10:39:08.621Z,28.90
2022-08-17T10:41:40.462Z,29.00
2022-08-17T10:43:57.913Z,29.10
2022-08-17T10:46:30.949Z,29.20
2022-08-17T10:48:36.945Z,29.30
2022-08-17T10:51:00.076Z,29.40
2022-08-17T10:53:01.966Z,29.50
2022-08-17T10:55:16.366Z,29.50
2022-08-17T10:57:26.656Z,29.50
2022-08-17T10:59:37.729Z,29.50
2022-08-17T11:01:41.114Z,29.50
2022-08-17T11:03:58.294Z,29.40
2022-08-17T11:06:38.876Z,29.50
2022-08-17T11:09:06.294Z,29.60
2022-08-17T11:11:34.369Z,29.60
2022-08-17T11:14:21.402Z,29.60
2022-08-17T11:16:50.408Z,29.70
2022-08-17T11:19:17.281Z,29.80
2022-08-17T11:21:43.413Z,29.80
2022-08-17T11:24:26.862Z,29.90
2022-08-17T11:26:32.416Z,29.90
2022-08-17T11:28:52.590Z,30.00
2022-08-17T11:30:54.788Z,30.10
2022-08-17T11:32:58.411Z,30.00
2022-08-17T11:35:21.105Z,30.10
2022-08-17T11:37:44.071Z,30.20
2022-08-17T11:40:14.752Z,30.20
2022-08-17T11:42:34.366Z,30.20
2022-08-17T11:44:56.610Z,30.30
2022-08-17T11:48:09.086Z,30.30
2022-08-17T11:50:38.855Z,30.30
2022-08-17T11:52:49.408Z,30.40
2022-08-17T11:54:51.295Z,30.50
2022-08-17T11:56:53.599Z,30.50
2022-08-17T11:58:55.520Z,30.60
2022-08-17T12:01:26.882Z,30.60
2022-08-17T12:03:34.472Z,30.70
2022-08-17T12:05:36.733Z,30.70
2022-08-17T12:08:05.486Z,30.70
2022-08-17T12:10:08.582Z,30.80
2022-08-17T12:12:17.752Z,30.80
2022-08-17T12:14:44.977Z,30.90
2022-08-17T12:17:09.112Z,30.90
2022-08-17T12:19:23.765Z,30.80
2022-08-17T12:21:48.819Z,30.80
2022-08-17T12:23:59.278Z,30.90
2022-08-17T12:26:24.811Z,31.00
2022-08-17T12:28:30.886Z,31.00
2022-08-17T12:30:32.705Z,31.10
2022-08-17T12:32:36.276Z,31.10
2022-08-17T12:34:43.590Z,31.20
2022-08-17T12:36:47.169Z,31.30
2022-08-17T12:39:13.756Z,31.40
2022-08-17T12:41:40.744Z,31.50
2022-08-17T12:43:42.537Z,31.60
2022-08-17T12:45:44.814Z,31.60
2022-08-17T12:47:47.928Z,31.60
2022-08-17T12:49:52.234Z,31.60
2022-08-17T12:52:06.290Z,31.60
2022-08-17T12:54:29.234Z,31.70
2022-08-17T12:56:31.345Z,31.80
2022-08-17T12:58:50.047Z,31.80
2022-08-17T13:00:59.951Z,31.80
2022-08-17T13:03:07.844Z,31.90
2022-08-17T13:05:27.933Z,32.00
2022-08-17T13:07:41.984Z,32.10
2022-08-17T13:09:51.285Z,32.10
2022-08-17T13:11:56.112Z,32.10
2022-08-17T13:14:10.049Z,32.20
2022-08-17T13:16:11.779Z,32.30
2022-08-17T13:18:33.411Z,32.40
2022-08-17T13:20:35.775Z,32.60
2022-08-17T13:22:44.516Z,32.60
2022-08-17T13:24:56.498Z,32.60
2022-08-17T13:27:01.260Z,32.70
2022-08-17T13:29:33.020Z,32.70
2022-08-17T13:31:49.797Z,32.80
2022-08-17T13:34:25.421Z,33.00
2022-08-17T13:36:30.189Z,33.10
2022-08-17T13:39:15.096Z,33.30
2022-08-17T13:41:38.251Z,33.30
2022-08-17T13:43:45.177Z,33.30
2022-08-17T13:45:50.676Z,33.40
2022-08-17T13:48:25.749Z,33.40
2022-08-17T13:50:27.739Z,33.50
2022-08-17T13:52:43.023Z,33.50
2022-08-17T13:54:51.840Z,33.50
2022-08-17T13:57:01.127Z,33.60
2022-08-17T13:59:07.183Z,33.60
2022-08-17T14:01:35.453Z,33.70
2022-08-17T14:03:37.277Z,33.80
2022-08-17T14:05:39.630Z,33.80
2022-08-17T14:07:41.562Z,33.80
2022-08-17T14:09:54.790Z,33.80
2022-08-17T14:11:58.181Z,33.90
2022-08-17T14:14:00.045Z,34.10
2022-08-17T14:16:02.016Z,34.20
2022-08-17T14:18:04.602Z,34.30
2022-08-17T14:20:12.149Z,34.30
2022-08-17T14:22:30.552Z,34.30
2022-08-17T14:24:44.145Z,34.30
2022-08-17T14:26:46.750Z,34.50
2022-08-17T14:28:54.652Z,34.60
2022-08-17T14:30:58.607Z,34.70
2022-08-17T14:33:02.079Z,34.90
2022-08-17T14:35:06.127Z,35.00
2022-08-17T14:37:07.921Z,35.20
2022-08-17T14:39:11.246Z,35.30
2022-08-17T14:41:18.749Z,35.40
2022-08-17T14:43:24.029Z,35.60
2022-08-17T14:45:31.703Z,35.80
2022-08-17T14:47:36.832Z,36.00
2022-08-17T14:49:38.588Z,36.10
2022-08-17T14:51:43.917Z,36.30
2022-08-17T14:53:46.252Z,36.50
2022-08-17T14:55:50.996Z,36.60
2022-08-17T14:57:53.140Z,36.80
2022-08-17T14:59:55.659Z,36.90
2022-08-17T15:01:58.190Z,37.10
2022-08-17T15:04:00.942Z,37.20
2022-08-17T15:06:03.142Z,37.40
2022-08-17T15:08:06.284Z,37.50
2022-08-17T15:10:08.945Z,37.50
2022-08-17T15:12:17.968Z,37.60
2022-08-17T15:14:20.222Z,37.70
2022-08-17T15:16:22.607Z,37.80
2022-08-17T15:18:25.083Z,37.90
2022-08-17T15:20:29.024Z,37.90
2022-08-17T15:22:31.414Z,37.90
2022-08-17T15:24:33.661Z,38.00
2022-08-17T15:26:36.804Z,38.00
2022-08-17T15:28:38.665Z,38.00
2022-08-17T15:30:44.833Z,37.90
2022-08-17T15:32:51.187Z,37.80
2022-08-17T15:34:59.179Z,37.60
2022-08-17T15:37:00.990Z,37.20
2022-08-17T15:39:03.142Z,36.80
2022-08-17T15:41:07.337Z,36.50
2022-08-17T15:43:16.308Z,36.20
2022-08-17T15:45:22.549Z,35.80
2022-08-17T15:47:24.516Z,35.60
2022-08-17T15:49:26.280Z,35.50
2022-08-17T15:51:34.231Z,35.40
2022-08-17T15:53:37.077Z,35.30
2022-08-17T15:55:39.658Z,35.10
2022-08-17T15:57:41.492Z,35.10
2022-08-17T15:59:44.351Z,35.20
2022-08-17T16:03:14.515Z,35.20
2022-08-17T16:04:29.747Z,35.20
2022-08-17T16:06:31.750Z,35.30
2022-08-17T16:08:34.978Z,35.20
2022-08-17T16:10:37.097Z,35.20
2022-08-17T16:12:39.071Z,35.10
2022-08-17T16:14:40.801Z,34.90
2022-08-17T16:16:42.605Z,34.70
2022-08-17T16:18:44.488Z,34.50
2022-08-17T16:20:46.368Z,34.30
2022-08-17T16:22:50.348Z,34.20
2022-08-17T16:24:57.119Z,34.00
2022-08-17T16:26:59.582Z,33.90
2022-08-17T16:29:05.446Z,33.70
2022-08-17T16:31:07.966Z,33.50
2022-08-17T16:33:11.558Z,33.40
2022-08-17T16:35:17.389Z,33.30
2022-08-17T16:37:19.307Z,33.30
2022-08-17T16:39:21.026Z,33.30
2022-08-17T16:41:41.773Z,33.20
2022-08-17T16:43:45.698Z,33.20
2022-08-17T16:45:51.874Z,33.20
2022-08-17T16:47:55.263Z,33.10
2022-08-17T16:49:57.730Z,33.10
2022-08-17T16:52:00.160Z,32.90
2022-08-17T16:54:02.746Z,32.90
2022-08-17T16:56:04.950Z,32.70
2022-08-17T16:58:08.820Z,32.70
2022-08-17T17:00:13.773Z,32.60
2022-08-17T17:02:23.534Z,32.50
2022-08-17T17:04:26.481Z,32.50
2022-08-17T17:06:49.887Z,32.40
2022-08-17T17:09:00.850Z,32.30
2022-08-17T17:11:37.785Z,32.10
2022-08-17T17:13:48.573Z,32.00
2022-08-17T17:15:59.591Z,31.80
2022-08-17T17:18:07.329Z,31.70
2022-08-17T17:20:18.139Z,31.70
2022-08-17T17:22:38.181Z,31.50
2022-08-17T17:25:03.416Z,31.50
2022-08-17T17:27:47.310Z,31.40
2022-08-17T17:30:04.090Z,31.30
2022-08-17T17:32:30.989Z,31.20
2022-08-17T17:34:34.768Z,31.10
2022-08-17T17:36:50.285Z,31.00
2022-08-17T17:39:05.341Z,31.00
2022-08-17T17:41:26.070Z,30.90
2022-08-17T17:43:38.872Z,30.90
2022-08-17T17:45:45.867Z,30.80
2022-08-17T17:47:48.032Z,30.70
2022-08-17T17:49:49.918Z,30.70
2022-08-17T17:52:18.892Z,30.60
2022-08-17T17:54:40.503Z,30.60
2022-08-17T17:56:45.348Z,30.50
2022-08-17T17:59:12.607Z,30.40
2022-08-17T18:01:22.628Z,30.30
2022-08-17T18:03:33.697Z,30.20
2022-08-17T18:05:57.228Z,30.10
2022-08-17T18:08:33.851Z,30.10
2022-08-17T18:10:47.443Z,29.90
2022-08-17T18:13:19.927Z,29.80
2022-08-17T18:15:29.454Z,29.80
2022-08-17T18:17:31.220Z,29.70
2022-08-17T18:19:33.191Z,29.60
2022-08-17T18:21:38.982Z,29.50
2022-08-17T18:23:54.458Z,29.40
2022-08-17T18:25:58.602Z,29.40
2022-08-17T18:28:00.455Z,29.30
2022-08-17T18:30:25.932Z,29.20
2022-08-17T18:32:40.840Z,29.20
2022-08-17T18:34:47.559Z,29.00
2022-08-17T18:36:49.693Z,28.90
2022-08-17T18:39:15.379Z,28.90
2022-08-17T18:41:30.489Z,28.80
2022-08-17T18:43:43.865Z,28.70
2022-08-17T18:46:15.772Z,28.60
2022-08-17T18:48:48.692Z,28.50
2022-08-17T18:50:53.512Z,28.30
2022-08-17T18:53:20.257Z,28.20
2022-08-17T18:55:30.190Z,28.10
2022-08-17T18:57:35.804Z,27.90
2022-08-17T18:59:48.196Z,27.90
2022-08-17T19:02:24.972Z,27.80
2022-08-17T19:04:40.599Z,27.70
2022-08-17T19:06:43.095Z,27.60
2022-08-17T19:08:44.901Z,27.60
2022-08-17T19:11:11.484Z,27.50
2022-08-17T19:13:42.252Z,27.40
2022-08-17T19:16:11.908Z,27.40
2022-08-17T19:18:18.534Z,27.30
2022-08-17T19:20:43.180Z,27.20
2022-08-17T19:23:01.507Z,27.10
2022-08-17T19:25:17.040Z,27.00
2022-08-17T19:27:34.731Z,26.80
2022-08-17T19:30:02.675Z,26.80
2022-08-17T19:32:08.797Z,26.70
2022-08-17T19:34:14.414Z,26.60
2022-08-17T19:36:21.984Z,26.50
2022-08-17T19:38:53.845Z,26.50
2022-08-17T19:41:05.798Z,26.40
2022-08-17T19:43:16.834Z,26.30
2022-08-17T19:45:29.765Z,26.20
2022-08-17T19:47:58.570Z,26.20
2022-08-17T19:50:11.346Z,26.10
2022-08-17T19:52:34.308Z,26.00
2022-08-17T19:54:55.417Z,26.00
2022-08-17T19:57:18.375Z,26.00
2022-08-17T19:59:35.778Z,25.90
2022-08-17T20:01:46.754Z,25.90
2022-08-17T20:03:57.514Z,25.90
2022-08-17T20:06:12.557Z,25.90
2022-08-17T20:08:22.099Z,25.90
2022-08-17T20:10:45.216Z,25.90
2022-08-17T20:12:53.376Z,25.90
2022-08-17T20:15:05.267Z,25.90
2022-08-17T20:17:08.074Z,25.90
2022-08-17T20:19:29.719Z,25.80
2022-08-17T20:21:44.163Z,25.90
2022-08-17T20:23:52.216Z,25.80
2022-08-17T20:25:59.175Z,25.80
2022-08-17T20:28:17.243Z,25.80
2022-08-17T20:30:42.130Z,25.80
2022-08-17T20:32:52.406Z,25.80
2022-08-17T20:35:04.136Z,25.80
2022-08-17T20:37:13.497Z,25.80
2022-08-17T20:39:32.156Z,25.80
2022-08-17T20:42:05.342Z,25.80
2022-08-17T20:44:07.179Z,25.80
2022-08-17T20:46:26.810Z,25.70
2022-08-17T20:48:38.387Z,25.70
2022-08-17T20:50:51.778Z,25.70
2022-08-17T20:53:02.352Z,25.70
2022-08-17T20:55:05.239Z,25.70
2022-08-17T20:57:13.716Z,25.60
2022-08-17T20:59:25.803Z,25.60
2022-08-17T21:01:40.729Z,25.60
2022-08-17T21:03:50.915Z,25.60
2022-08-17T21:06:16.876Z,25.60
2022-08-17T21:08:25.621Z,25.60
2022-08-17T21:10:27.325Z,25.50
2022-08-17T21:12:58.432Z,25.50
2022-08-17T21:15:17.361Z,25.50
2022-08-17T21:17:50.118Z,25.40
2022-08-17T21:20:22.452Z,25.40
2022-08-17T21:22:33.315Z,25.40
2022-08-17T21:24:43.773Z,25.40
2022-08-17T21:27:08.343Z,25.30
2022-08-17T21:29:31.170Z,25.30
2022-08-17T21:31:46.203Z,25.30
2022-08-17T21:34:15.035Z,25.30
2022-08-17T21:36:26.625Z,25.20
2022-08-17T21:38:47.682Z,25.20
2022-08-17T21:40:53.078Z,25.20
2022-08-17T21:43:15.737Z,25.20
2022-08-17T21:45:35.517Z,25.10
2022-08-17T21:47:43.421Z,25.10
2022-08-17T21:49:45.239Z,25.10
2022-08-17T21:52:07.077Z,25.10
2022-08-17T21:54:36.095Z,25.10
2022-08-17T21:56:40.618Z,25.10
2022-08-17T21:58:48.438Z,25.00
2022-08-17T22:01:21.063Z,25.00
2022-08-17T22:03:26.122Z,25.00
2022-08-17T22:05:39.763Z,24.80
2022-08-17T22:07:50.893Z,24.80
2022-08-17T22:09:52.830Z,24.60
2022-08-17T22:11:59.941Z,24.60
2022-08-17T22:14:05.719Z,24.50
2022-08-17T22:16:28.578Z,24.40
2022-08-17T22:18:31.941Z,24.30
2022-08-17T22:20:34.525Z,24.20
2022-08-17T22:23:13.061Z,24.10
2022-08-17T22:25:22.221Z,24.10
2022-08-17T22:27:45.977Z,24.00
2022-08-17T22:29:57.903Z,23.90
2022-08-17T22:31:59.944Z,23.90
2022-08-17T22:34:04.538Z,23.90
2022-08-17T22:36:32.524Z,23.80
2022-08-17T22:38:34.757Z,23.80
2022-08-17T22:40:36.569Z,23.80
2022-08-17T22:42:49.526Z,23.70
2022-08-17T22:44:51.714Z,23.70
2022-08-17T22:46:53.450Z,23.60
2022-08-17T22:48:59.321Z,23.60
2022-08-17T22:51:13.817Z,23.60
2022-08-17T22:53:37.918Z,23.60
2022-08-17T22:56:09.038Z,23.50
2022-08-17T22:58:35.923Z,23.40
2022-08-17T23:00:42.339Z,23.30
2022-08-17T23:03:11.607Z,23.20
2022-08-17T23:05:13.414Z,23.10
2022-08-17T23:07:15.567Z,22.90
2022-08-17T23:09:17.347Z,22.80
2022-08-17T23:11:19.116Z,22.60
2022-08-17T23:13:38.228Z,22.50
2022-08-17T23:15:41.375Z,22.20
2022-08-17T23:17:43.167Z,22.10
2022-08-17T23:19:47.215Z,22.10
2022-08-17T23:21:52.413Z,22.00
2022-08-17T23:23:54.231Z,21.90
2022-08-17T23:25:56.063Z,21.80
2022-08-17T23:28:01.647Z,21.70
2022-08-17T23:30:04.380Z,21.70
2022-08-17T23:32:06.481Z,21.60
2022-08-17T23:34:14.638Z,21.60
2022-08-17T23:36:17.317Z,21.60
2022-08-17T23:38:19.095Z,21.40
2022-08-17T23:40:21.396Z,21.30
2022-08-17T23:42:23.340Z,21.30
2022-08-17T23:44:25.333Z,21.30
2022-08-17T23:46:27.161Z,21.30
2022-08-17T23:48:35.831Z,21.30
2022-08-17T23:50:38.971Z,21.20
2022-08-17T23:52:42.795Z,21.20
2022-08-17T23:54:47.125Z,21.20
2022-08-17T23:56:49.085Z,21.20
2022-08-17T23:58:51.406Z,21.20
